This is the latest recevied weather packets stored in our database for station/object N1IJV-10. If no packets are shown the sender has not sent any weather packets the latest 10 day(s).
| Time | Temp. | Humidity | Pressure | Rain* | Wind** | Luminosity | Snow |
|---|---|---|---|---|---|---|---|
| 1777479342 | 14.44° C | 69% | 1012.8 hPa | 0 mm | - | 732 W/m² | - |
| 1777479038 | 15° C | 68% | 1012.6 hPa | 0 mm | - | 481 W/m² | - |
| 1777478735 | 14.44° C | 68% | 1012.7 hPa | 0 mm | - | 467 W/m² | - |
| 1777478431 | 14.44° C | 68% | 1012.6 hPa | 0 mm | - | 733 W/m² | - |
| 1777478128 | 14.44° C | 69% | 1012.6 hPa | 0 mm | - | 715 W/m² | - |
| 1777477825 | 15° C | 66% | 1012.6 hPa | 0 mm | - | 189 W/m² | - |
| 1777477520 | 15° C | 67% | 1012.8 hPa | 0 mm | - | 337 W/m² | - |
| 1777477217 | 14.44° C | 69% | 1012.7 hPa | 0 mm | - | 684 W/m² | - |
| 1777476913 | 14.44° C | 68% | 1012.7 hPa | 0 mm | - | 183 W/m² | - |
| 1777476611 | 13.89° C | 70% | 1012.7 hPa | 0 mm | - | 718 W/m² | - |
| 1777476308 | 13.89° C | 67% | 1012.8 hPa | 0 mm | - | 740 W/m² | - |
| 1777476003 | 14.44° C | 70% | 1012.7 hPa | 0 mm | - | 726 W/m² | - |
| 1777475699 | 13.89° C | 72% | 1012.8 hPa | 0 mm | - | 687 W/m² | - |
| 1777475395 | 13.89° C | 70% | 1012.6 hPa | 0 mm | - | 648 W/m² | - |
| 1777475090 | 13.89° C | 70% | 1012.7 hPa | 0 mm | - | 642 W/m² | - |
| 1777474788 | 13.89° C | 72% | 1012.9 hPa | 0 mm | - | 683 W/m² | - |
| 1777474483 | 13.33° C | 74% | 1012.8 hPa | 0 mm | - | 666 W/m² | - |
| 1777474180 | 12.78° C | 73% | 1012.6 hPa | 0 mm | - | 633 W/m² | - |
| 1777473878 | 13.89° C | 73% | 1012.5 hPa | 0 mm | - | 111 W/m² | - |
| 1777473575 | 12.78° C | 77% | 1012.5 hPa | 0 mm | - | 576 W/m² | - |
| 1777473271 | 12.22° C | 75% | 1012.6 hPa | 0 mm | - | 175 W/m² | - |
| 1777472967 | 12.22° C | 76% | 1012.6 hPa | 0 mm | - | 135 W/m² | - |
| 1777472664 | 12.78° C | 76% | 1012.4 hPa | 0 mm | - | 85 W/m² | - |
| 1777472360 | 13.33° C | 73% | 1012.5 hPa | 0 mm | - | 126 W/m² | - |
| 1777472058 | 12.78° C | 72% | 1012.6 hPa | 0 mm | - | 578 W/m² | - |
* Rain latest hour (hover to see other rain measurements)
** Current wind speed in m/s (hover to see current wind gust speed)